createdAt,value
2022-11-29T06:59:35.625Z,71.58
2022-11-29T07:02:11.696Z,71.70
2022-11-29T07:04:45.398Z,71.18
2022-11-29T07:07:17.975Z,71.17
2022-11-29T07:09:46.849Z,71.61
2022-11-29T07:12:13.828Z,70.98
2022-11-29T07:14:40.517Z,71.01
2022-11-29T07:17:24.734Z,71.33
2022-11-29T07:19:54.143Z,71.27
2022-11-29T07:22:39.300Z,71.45
2022-11-29T07:25:17.953Z,71.56
2022-11-29T07:27:58.571Z,71.63
2022-11-29T07:30:45.688Z,71.24
2022-11-29T07:33:30.887Z,71.44
2022-11-29T07:36:11.894Z,71.17
2022-11-29T07:38:48.162Z,71.35
2022-11-29T07:41:19.233Z,70.99
2022-11-29T07:44:07.510Z,71.61
2022-11-29T07:46:33.969Z,71.44
2022-11-29T07:49:00.412Z,71.44
2022-11-29T07:51:26.865Z,71.15
2022-11-29T07:53:53.901Z,71.14
2022-11-29T07:56:21.238Z,70.98
2022-11-29T07:58:47.889Z,71.46
2022-11-29T08:01:14.402Z,71.21
2022-11-29T08:03:42.271Z,70.98
2022-11-29T08:06:08.913Z,71.12
2022-11-29T08:08:39.217Z,71.29
2022-11-29T08:11:13.489Z,70.86
2022-11-29T08:13:39.905Z,71.00
2022-11-29T08:16:06.607Z,70.80
2022-11-29T08:18:33.124Z,70.92
2022-11-29T08:21:04.840Z,70.88
2022-11-29T08:23:31.232Z,71.08
2022-11-29T08:26:02.035Z,70.94
2022-11-29T08:28:28.853Z,71.04
2022-11-29T08:31:07.637Z,70.72
2022-11-29T08:33:42.675Z,70.99
2022-11-29T08:36:13.497Z,70.61
2022-11-29T08:38:40.047Z,70.05
2022-11-29T08:41:10.706Z,70.11
2022-11-29T08:43:37.202Z,70.31
2022-11-29T08:46:03.980Z,70.44
2022-11-29T08:48:30.512Z,70.84
2022-11-29T08:50:57.804Z,70.60
2022-11-29T08:53:43.153Z,70.40
2022-11-29T08:57:04.385Z,70.07
2022-11-29T08:59:01.775Z,69.00
2022-11-29T09:01:29.308Z,69.86
2022-11-29T09:04:10.511Z,70.08
2022-11-29T09:06:39.220Z,69.58
2022-11-29T09:09:05.879Z,69.76
2022-11-29T09:11:34.367Z,69.92
2022-11-29T09:14:03.908Z,69.46
2022-11-29T09:16:34.218Z,69.27
2022-11-29T09:19:00.972Z,69.10
2022-11-29T09:21:30.014Z,69.59
2022-11-29T09:23:59.322Z,69.74
2022-11-29T09:26:29.466Z,69.26
2022-11-29T09:28:58.093Z,69.44
2022-11-29T09:31:24.593Z,69.89
2022-11-29T09:33:51.085Z,69.96
2022-11-29T09:36:17.551Z,69.59
2022-11-29T09:38:44.085Z,69.58
2022-11-29T09:41:39.274Z,69.34
2022-11-29T09:44:10.426Z,69.66
2022-11-29T09:47:29.104Z,70.08
2022-11-29T09:50:16.665Z,70.12
2022-11-29T09:53:02.037Z,70.08
2022-11-29T09:55:37.566Z,70.29
2022-11-29T09:58:09.924Z,70.31
2022-11-29T10:00:43.617Z,69.19
2022-11-29T10:03:31.811Z,69.35
2022-11-29T10:06:13.784Z,69.56
2022-11-29T10:08:53.956Z,69.40
2022-11-29T10:12:04.441Z,69.81
2022-11-29T10:14:48.782Z,69.67
2022-11-29T10:17:31.695Z,69.84
2022-11-29T10:20:17.431Z,70.10
2022-11-29T10:22:54.492Z,70.18
2022-11-29T10:25:28.393Z,69.72
2022-11-29T10:27:55.096Z,70.24
2022-11-29T10:30:22.147Z,70.42
2022-11-29T10:32:56.515Z,70.56
2022-11-29T10:35:23.194Z,70.25
2022-11-29T10:38:28.635Z,70.20
2022-11-29T10:40:47.132Z,70.15
2022-11-29T10:43:14.018Z,69.73
2022-11-29T10:45:50.053Z,69.54
2022-11-29T10:48:20.209Z,69.63
2022-11-29T10:50:49.751Z,69.89
2022-11-29T10:53:20.209Z,68.81
2022-11-29T10:56:31.098Z,69.69
2022-11-29T10:58:58.886Z,70.29
2022-11-29T11:01:28.901Z,69.84
2022-11-29T11:03:57.659Z,70.10
2022-11-29T11:06:43.239Z,69.85
2022-11-29T11:09:20.545Z,69.97
2022-11-29T11:11:52.957Z,70.12
2022-11-29T11:14:27.612Z,69.76
2022-11-29T11:16:54.820Z,70.20
2022-11-29T11:19:30.380Z,68.79
2022-11-29T11:21:59.372Z,70.00
2022-11-29T11:24:35.109Z,70.22
2022-11-29T11:27:02.403Z,69.50
2022-11-29T11:29:42.158Z,70.42
2022-11-29T11:32:17.577Z,70.89
2022-11-29T11:34:59.112Z,70.77
2022-11-29T11:37:30.180Z,71.17
2022-11-29T11:40:18.354Z,70.91
2022-11-29T11:42:45.265Z,70.89
2022-11-29T11:45:11.645Z,71.02
2022-11-29T11:47:44.782Z,70.27
2022-11-29T11:50:18.058Z,71.34
2022-11-29T11:52:53.297Z,71.38
2022-11-29T11:55:22.618Z,70.98
2022-11-29T11:58:10.323Z,71.09
2022-11-29T12:01:06.051Z,71.29
2022-11-29T12:03:38.867Z,71.25
2022-11-29T12:06:20.465Z,70.70
2022-11-29T12:08:48.349Z,71.16
2022-11-29T12:11:17.339Z,70.99
2022-11-29T12:13:49.747Z,70.92
2022-11-29T12:16:27.401Z,71.16
2022-11-29T12:19:12.016Z,70.78
2022-11-29T12:21:43.715Z,70.50
2022-11-29T12:24:35.474Z,70.95
2022-11-29T12:27:05.221Z,70.80
2022-11-29T12:29:34.348Z,70.90
2022-11-29T12:32:46.373Z,70.60
2022-11-29T12:35:36.588Z,70.63
2022-11-29T12:38:17.861Z,71.05
2022-11-29T12:40:58.604Z,71.08
2022-11-29T12:43:44.159Z,71.10
2022-11-29T12:46:27.786Z,70.85
2022-11-29T12:49:12.285Z,70.97
2022-11-29T12:52:00.690Z,70.67
2022-11-29T12:54:32.546Z,70.59
2022-11-29T12:57:18.799Z,70.69
2022-11-29T13:00:18.877Z,70.37
2022-11-29T13:02:58.712Z,70.96
2022-11-29T13:05:41.589Z,71.29
2022-11-29T13:08:11.095Z,71.31
2022-11-29T13:10:43.486Z,71.10
2022-11-29T13:13:34.618Z,71.38
2022-11-29T13:16:21.255Z,70.95
2022-11-29T13:19:25.246Z,71.20
2022-11-29T13:22:03.926Z,70.59
2022-11-29T13:24:49.499Z,70.34
2022-11-29T13:27:22.309Z,70.37
2022-11-29T13:29:49.310Z,70.25
2022-11-29T13:32:29.741Z,70.31
2022-11-29T13:35:00.721Z,70.46
2022-11-29T13:37:40.318Z,70.37
2022-11-29T13:40:37.204Z,69.92
2022-11-29T13:43:03.585Z,70.56
2022-11-29T13:45:49.141Z,70.40
2022-11-29T13:48:37.021Z,70.42
2022-11-29T13:51:29.491Z,70.47
2022-11-29T13:53:59.992Z,70.44
2022-11-29T13:56:26.485Z,70.13
2022-11-29T13:58:54.386Z,70.19
2022-11-29T14:01:22.484Z,70.27
2022-11-29T14:04:12.373Z,70.39
2022-11-29T14:06:39.193Z,70.77
2022-11-29T14:09:26.769Z,70.38
2022-11-29T14:12:17.939Z,70.52
2022-11-29T14:14:57.021Z,70.42
2022-11-29T14:17:48.962Z,70.66
2022-11-29T14:20:30.501Z,70.82
2022-11-29T14:23:05.976Z,70.78
2022-11-29T14:26:02.422Z,70.99
2022-11-29T14:28:32.857Z,70.79
2022-11-29T14:31:01.803Z,71.15
2022-11-29T14:33:32.746Z,70.91
2022-11-29T14:36:14.387Z,70.79
2022-11-29T14:39:22.630Z,70.80
2022-11-29T14:42:01.073Z,70.93
2022-11-29T14:44:30.644Z,71.08
2022-11-29T14:47:06.203Z,71.05
2022-11-29T14:49:43.470Z,71.18
2022-11-29T14:52:20.160Z,71.24
2022-11-29T14:54:59.039Z,70.83
2022-11-29T14:58:06.350Z,71.51
2022-11-29T15:00:32.831Z,71.72
2022-11-29T15:03:21.316Z,71.64
2022-11-29T15:06:09.852Z,71.77
2022-11-29T15:09:02.298Z,71.67
2022-11-29T15:11:53.015Z,71.82
2022-11-29T15:14:28.531Z,71.82
2022-11-29T15:17:09.380Z,72.18
2022-11-29T15:20:00.347Z,71.94
2022-11-29T15:22:39.283Z,72.31
2022-11-29T15:25:13.739Z,72.58
2022-11-29T15:27:58.041Z,72.68
2022-11-29T15:30:30.969Z,72.16
2022-11-29T15:32:59.599Z,72.85
2022-11-29T15:35:26.777Z,72.61
2022-11-29T15:37:54.164Z,72.43
2022-11-29T15:40:33.057Z,72.90
2022-11-29T15:43:29.060Z,72.95
2022-11-29T15:46:33.220Z,72.93
2022-11-29T15:49:34.370Z,72.69
2022-11-29T15:52:20.371Z,72.86
2022-11-29T16:02:21.571Z,73.07
2022-11-29T16:30:12.347Z,73.36
2022-11-29T16:34:01.883Z,73.03
2022-11-29T16:53:30.770Z,73.38
2022-11-29T17:04:03.011Z,72.99
2022-11-29T17:07:02.373Z,73.32
2022-11-29T17:10:26.008Z,73.05
2022-11-29T17:12:52.808Z,73.40
2022-11-29T17:15:19.296Z,73.44
2022-11-29T17:17:45.853Z,73.01
2022-11-29T17:20:15.583Z,72.70
2022-11-29T17:22:42.151Z,72.72
2022-11-29T17:25:09.660Z,72.80
2022-11-29T17:27:38.763Z,72.70
2022-11-29T17:30:06.660Z,73.11
2022-11-29T17:32:39.069Z,72.71
2022-11-29T17:35:07.430Z,72.63
2022-11-29T17:37:38.121Z,73.00
2022-11-29T17:40:05.386Z,72.40
2022-11-29T17:42:31.836Z,72.98
2022-11-29T17:44:58.298Z,72.74
2022-11-29T17:47:24.817Z,72.94
2022-11-29T17:49:51.573Z,72.74
2022-11-29T17:52:19.628Z,72.90
2022-11-29T17:54:46.065Z,72.49
2022-11-29T17:57:15.938Z,72.72
2022-11-29T17:59:42.561Z,72.92
2022-11-29T18:02:12.312Z,72.91
2022-11-29T18:04:42.324Z,72.87
2022-11-29T18:07:11.063Z,72.93
2022-11-29T18:09:37.561Z,72.72
2022-11-29T18:12:08.698Z,72.59
2022-11-29T18:14:46.564Z,72.62
2022-11-29T18:17:16.799Z,72.72
2022-11-29T18:19:43.506Z,73.10
2022-11-29T18:22:10.115Z,73.02
2022-11-29T18:24:36.724Z,72.77
2022-11-29T18:27:03.403Z,73.08
2022-11-29T18:29:34.266Z,72.83
2022-11-29T18:32:08.414Z,73.24
2022-11-29T18:34:35.256Z,72.90
2022-11-29T18:37:02.176Z,73.04
2022-11-29T18:39:29.697Z,72.99
2022-11-29T18:41:56.241Z,73.15
2022-11-29T18:44:29.191Z,72.96
2022-11-29T18:49:42.031Z,72.35
2022-11-29T18:52:12.244Z,72.55
2022-11-29T18:57:30.074Z,72.38
2022-11-29T19:00:18.295Z,72.73
2022-11-29T19:02:47.745Z,72.94
2022-11-29T19:05:24.668Z,72.58
2022-11-29T19:07:54.652Z,72.89
2022-11-29T19:10:25.131Z,72.31
2022-11-29T19:12:51.807Z,72.97
2022-11-29T19:15:25.659Z,72.56
2022-11-29T19:18:01.891Z,72.95
2022-11-29T19:20:28.526Z,72.61
2022-11-29T19:23:16.017Z,72.54
2022-11-29T19:25:45.844Z,72.81
2022-11-29T19:28:18.843Z,72.75
2022-11-29T19:30:54.152Z,72.57
2022-11-29T19:33:23.373Z,72.78
2022-11-29T19:35:50.183Z,72.64
2022-11-29T19:38:16.997Z,73.01
2022-11-29T19:40:43.565Z,72.93
2022-11-29T19:43:13.396Z,73.08
2022-11-29T19:45:40.704Z,73.22
2022-11-29T19:48:07.747Z,72.86
2022-11-29T19:50:34.400Z,72.96
2022-11-29T19:53:01.009Z,72.95
2022-11-29T19:55:57.562Z,73.17
2022-11-29T19:58:49.419Z,72.86
2022-11-29T20:01:49.391Z,72.96
2022-11-29T20:04:22.922Z,72.81
2022-11-29T20:06:58.868Z,72.87
2022-11-29T20:09:34.366Z,72.72
2022-11-29T20:20:05.893Z,72.78
2022-11-29T20:22:38.217Z,72.81
2022-11-29T20:33:02.383Z,73.30
2022-11-29T20:39:57.140Z,72.49
2022-11-29T20:43:04.962Z,72.72
2022-11-29T20:54:16.225Z,72.63
2022-11-29T21:04:10.865Z,72.61
2022-11-29T21:07:22.916Z,72.94
2022-11-29T21:19:22.893Z,73.21
2022-11-29T21:25:27.221Z,72.74
2022-11-29T21:27:55.128Z,73.33
2022-11-29T21:30:23.909Z,72.83
2022-11-29T21:32:50.951Z,72.63
2022-11-29T21:35:19.609Z,72.76
2022-11-29T21:37:46.471Z,72.56
2022-11-29T21:40:14.335Z,72.79
2022-11-29T21:42:41.146Z,72.88
2022-11-29T21:45:13.420Z,72.87
2022-11-29T21:47:42.571Z,72.48
2022-11-29T21:50:12.791Z,72.60
2022-11-29T21:52:39.930Z,72.37
2022-11-29T21:55:06.871Z,72.43
2022-11-29T21:57:33.435Z,72.47
2022-11-29T21:59:59.981Z,72.77
2022-11-29T22:02:29.353Z,72.69
2022-11-29T22:04:55.960Z,72.40
2022-11-29T22:07:22.556Z,73.07
2022-11-29T22:09:49.310Z,72.85
2022-11-29T22:12:33.294Z,72.66
2022-11-29T22:15:00.505Z,72.73
2022-11-29T22:17:26.986Z,72.53
2022-11-29T22:19:53.500Z,72.45
2022-11-29T22:22:22.219Z,72.87
2022-11-29T22:24:58.433Z,72.75
2022-11-29T22:27:24.934Z,72.64
2022-11-29T22:29:51.566Z,72.66
2022-11-29T22:32:18.159Z,72.80
2022-11-29T22:34:44.894Z,72.80
2022-11-29T22:37:12.574Z,72.61
2022-11-29T22:39:39.105Z,72.55
2022-11-29T22:42:05.631Z,72.45
2022-11-29T22:44:32.189Z,72.76
2022-11-29T22:46:58.772Z,72.48
2022-11-29T22:49:25.409Z,72.12
2022-11-29T22:51:52.410Z,72.32
2022-11-29T22:54:20.310Z,72.26
2022-11-29T22:56:47.368Z,72.41
2022-11-29T22:59:14.186Z,71.99
2022-11-29T23:01:41.805Z,72.21
2022-11-29T23:04:10.775Z,72.37
2022-11-29T23:06:41.192Z,72.47
2022-11-29T23:09:12.009Z,72.43
2022-11-29T23:11:39.075Z,72.41
2022-11-29T23:14:05.825Z,72.26
2022-11-29T23:16:33.059Z,72.46
2022-11-29T23:19:00.747Z,72.57
2022-11-29T23:21:35.513Z,72.61
2022-11-29T23:24:02.627Z,72.38
2022-11-29T23:26:33.929Z,72.33
2022-11-29T23:29:00.424Z,72.62
2022-11-29T23:31:27.081Z,72.66
2022-11-29T23:33:53.835Z,72.83
2022-11-29T23:36:20.615Z,72.82
2022-11-29T23:38:47.305Z,72.41
2022-11-29T23:41:22.369Z,72.53
2022-11-29T23:43:49.059Z,72.72
2022-11-29T23:46:18.080Z,72.72
2022-11-29T23:48:44.988Z,72.74
2022-11-29T23:51:12.343Z,72.96
2022-11-29T23:53:39.924Z,73.11
2022-11-29T23:56:10.337Z,72.18
2022-11-29T23:58:38.011Z,72.50
